sensor_id;sensor_type;location;lat;lon;timestamp;P1;durP1;ratioP1;P2;durP2;ratioP2
17826;SDS011;9038;48.208;16.308;2022-12-18T00:00:09;11.63;;;6.27;;
17826;SDS011;9038;48.208;16.308;2022-12-18T00:02:12;14.17;;;7.23;;
17826;SDS011;9038;48.208;16.308;2022-12-18T00:04:15;11.37;;;6.43;;
17826;SDS011;9038;48.208;16.308;2022-12-18T00:06:22;11.43;;;6.73;;
17826;SDS011;9038;48.208;16.308;2022-12-18T00:08:24;8.83;;;6.10;;
17826;SDS011;9038;48.208;16.308;2022-12-18T00:10:26;10.90;;;6.20;;
17826;SDS011;9038;48.208;16.308;2022-12-18T00:12:28;11.00;;;7.10;;
17826;SDS011;9038;48.208;16.308;2022-12-18T00:14:30;9.70;;;6.53;;
17826;SDS011;9038;48.208;16.308;2022-12-18T00:16:34;9.63;;;6.43;;
17826;SDS011;9038;48.208;16.308;2022-12-18T00:18:37;8.30;;;6.30;;
17826;SDS011;9038;48.208;16.308;2022-12-18T00:20:39;10.33;;;6.00;;
17826;SDS011;9038;48.208;16.308;2022-12-18T00:22:41;9.37;;;6.40;;
17826;SDS011;9038;48.208;16.308;2022-12-18T00:24:43;7.87;;;6.10;;
17826;SDS011;9038;48.208;16.308;2022-12-18T00:26:45;12.53;;;6.70;;
17826;SDS011;9038;48.208;16.308;2022-12-18T00:28:47;8.37;;;6.27;;
17826;SDS011;9038;48.208;16.308;2022-12-18T00:30:49;11.90;;;6.17;;
17826;SDS011;9038;48.208;16.308;2022-12-18T00:32:52;9.27;;;5.57;;
17826;SDS011;9038;48.208;16.308;2022-12-18T00:34:54;13.67;;;6.43;;
17826;SDS011;9038;48.208;16.308;2022-12-18T00:36:56;9.30;;;5.73;;
17826;SDS011;9038;48.208;16.308;2022-12-18T00:38:58;12.00;;;5.80;;
17826;SDS011;9038;48.208;16.308;2022-12-18T00:41:02;10.57;;;5.77;;
17826;SDS011;9038;48.208;16.308;2022-12-18T00:43:04;11.23;;;4.63;;
17826;SDS011;9038;48.208;16.308;2022-12-18T00:45:05;6.50;;;5.10;;
17826;SDS011;9038;48.208;16.308;2022-12-18T00:47:07;8.87;;;5.50;;
17826;SDS011;9038;48.208;16.308;2022-12-18T00:49:14;7.90;;;4.87;;
17826;SDS011;9038;48.208;16.308;2022-12-18T00:51:17;15.07;;;5.63;;
17826;SDS011;9038;48.208;16.308;2022-12-18T00:53:19;20.27;;;7.30;;
17826;SDS011;9038;48.208;16.308;2022-12-18T00:55:21;11.77;;;5.63;;
17826;SDS011;9038;48.208;16.308;2022-12-18T00:57:23;8.57;;;6.00;;
17826;SDS011;9038;48.208;16.308;2022-12-18T00:59:24;11.87;;;5.83;;
17826;SDS011;9038;48.208;16.308;2022-12-18T01:01:26;9.63;;;5.23;;
17826;SDS011;9038;48.208;16.308;2022-12-18T01:03:28;8.07;;;5.40;;
17826;SDS011;9038;48.208;16.308;2022-12-18T01:05:32;8.17;;;5.40;;
17826;SDS011;9038;48.208;16.308;2022-12-18T01:07:34;11.90;;;5.63;;
17826;SDS011;9038;48.208;16.308;2022-12-18T01:09:36;15.57;;;5.90;;
17826;SDS011;9038;48.208;16.308;2022-12-18T01:11:38;9.87;;;5.60;;
17826;SDS011;9038;48.208;16.308;2022-12-18T01:13:40;12.93;;;5.83;;
17826;SDS011;9038;48.208;16.308;2022-12-18T01:15:47;8.87;;;5.90;;
17826;SDS011;9038;48.208;16.308;2022-12-18T01:17:51;11.63;;;6.00;;
17826;SDS011;9038;48.208;16.308;2022-12-18T01:19:53;10.20;;;6.20;;
17826;SDS011;9038;48.208;16.308;2022-12-18T01:21:57;9.83;;;6.60;;
17826;SDS011;9038;48.208;16.308;2022-12-18T01:23:59;9.33;;;5.63;;
17826;SDS011;9038;48.208;16.308;2022-12-18T01:26:04;10.70;;;6.53;;
17826;SDS011;9038;48.208;16.308;2022-12-18T01:28:06;10.67;;;6.27;;
17826;SDS011;9038;48.208;16.308;2022-12-18T01:30:09;9.17;;;6.30;;
17826;SDS011;9038;48.208;16.308;2022-12-18T01:32:11;9.50;;;6.80;;
17826;SDS011;9038;48.208;16.308;2022-12-18T01:34:13;12.00;;;6.90;;
17826;SDS011;9038;48.208;16.308;2022-12-18T01:36:16;10.50;;;6.87;;
17826;SDS011;9038;48.208;16.308;2022-12-18T01:38:21;13.90;;;7.80;;
17826;SDS011;9038;48.208;16.308;2022-12-18T01:40:23;13.40;;;8.50;;
17826;SDS011;9038;48.208;16.308;2022-12-18T01:42:25;13.30;;;7.73;;
17826;SDS011;9038;48.208;16.308;2022-12-18T01:46:55;12.27;;;7.77;;
17826;SDS011;9038;48.208;16.308;2022-12-18T01:48:58;10.73;;;7.50;;
17826;SDS011;9038;48.208;16.308;2022-12-18T01:51:02;11.03;;;7.80;;
17826;SDS011;9038;48.208;16.308;2022-12-18T01:53:06;10.47;;;7.43;;
17826;SDS011;9038;48.208;16.308;2022-12-18T01:55:13;11.70;;;7.47;;
17826;SDS011;9038;48.208;16.308;2022-12-18T01:57:18;11.70;;;7.67;;
17826;SDS011;9038;48.208;16.308;2022-12-18T01:59:20;12.13;;;8.33;;
17826;SDS011;9038;48.208;16.308;2022-12-18T02:01:23;13.07;;;8.67;;
17826;SDS011;9038;48.208;16.308;2022-12-18T02:03:25;11.17;;;7.97;;
17826;SDS011;9038;48.208;16.308;2022-12-18T02:05:31;12.10;;;8.33;;
17826;SDS011;9038;48.208;16.308;2022-12-18T02:07:42;13.30;;;8.73;;
17826;SDS011;9038;48.208;16.308;2022-12-18T02:09:50;12.63;;;8.00;;
17826;SDS011;9038;48.208;16.308;2022-12-18T02:11:59;17.90;;;9.20;;
17826;SDS011;9038;48.208;16.308;2022-12-18T02:14:10;12.00;;;8.93;;
17826;SDS011;9038;48.208;16.308;2022-12-18T02:16:24;14.37;;;8.13;;
17826;SDS011;9038;48.208;16.308;2022-12-18T02:18:32;17.57;;;9.03;;
17826;SDS011;9038;48.208;16.308;2022-12-18T02:20:38;13.27;;;8.40;;
17826;SDS011;9038;48.208;16.308;2022-12-18T02:22:50;22.00;;;10.43;;
17826;SDS011;9038;48.208;16.308;2022-12-18T02:25:10;13.23;;;8.90;;
17826;SDS011;9038;48.208;16.308;2022-12-18T02:27:18;17.63;;;9.20;;
17826;SDS011;9038;48.208;16.308;2022-12-18T02:29:21;14.27;;;9.57;;
17826;SDS011;9038;48.208;16.308;2022-12-18T02:31:28;14.93;;;9.73;;
17826;SDS011;9038;48.208;16.308;2022-12-18T02:33:36;15.87;;;10.23;;
17826;SDS011;9038;48.208;16.308;2022-12-18T02:35:40;20.17;;;10.73;;
17826;SDS011;9038;48.208;16.308;2022-12-18T02:37:43;17.13;;;9.53;;
17826;SDS011;9038;48.208;16.308;2022-12-18T02:39:48;17.27;;;10.33;;
17826;SDS011;9038;48.208;16.308;2022-12-18T02:41:50;19.63;;;10.93;;
17826;SDS011;9038;48.208;16.308;2022-12-18T02:43:55;17.07;;;10.50;;
17826;SDS011;9038;48.208;16.308;2022-12-18T02:45:58;18.10;;;10.70;;
17826;SDS011;9038;48.208;16.308;2022-12-18T02:48:02;15.00;;;10.27;;
17826;SDS011;9038;48.208;16.308;2022-12-18T02:50:06;15.33;;;9.90;;
17826;SDS011;9038;48.208;16.308;2022-12-18T02:52:16;14.77;;;9.07;;
17826;SDS011;9038;48.208;16.308;2022-12-18T02:54:35;14.57;;;8.77;;
17826;SDS011;9038;48.208;16.308;2022-12-18T02:56:54;18.37;;;9.97;;
17826;SDS011;9038;48.208;16.308;2022-12-18T02:59:00;12.87;;;8.97;;
17826;SDS011;9038;48.208;16.308;2022-12-18T03:01:08;18.23;;;9.13;;
17826;SDS011;9038;48.208;16.308;2022-12-18T03:03:18;18.77;;;9.90;;
17826;SDS011;9038;48.208;16.308;2022-12-18T03:05:24;22.60;;;10.70;;
17826;SDS011;9038;48.208;16.308;2022-12-18T03:07:33;17.87;;;9.60;;
17826;SDS011;9038;48.208;16.308;2022-12-18T03:09:40;14.80;;;9.43;;
17826;SDS011;9038;48.208;16.308;2022-12-18T03:11:47;15.93;;;10.30;;
17826;SDS011;9038;48.208;16.308;2022-12-18T03:14:12;17.00;;;10.83;;
17826;SDS011;9038;48.208;16.308;2022-12-18T03:16:18;16.97;;;10.87;;
17826;SDS011;9038;48.208;16.308;2022-12-18T03:18:29;16.60;;;10.23;;
17826;SDS011;9038;48.208;16.308;2022-12-18T03:20:35;16.60;;;9.90;;
17826;SDS011;9038;48.208;16.308;2022-12-18T03:22:41;18.73;;;10.93;;
17826;SDS011;9038;48.208;16.308;2022-12-18T03:24:45;19.40;;;11.50;;
17826;SDS011;9038;48.208;16.308;2022-12-18T03:26:50;16.63;;;10.27;;
17826;SDS011;9038;48.208;16.308;2022-12-18T03:28:55;17.80;;;10.77;;
17826;SDS011;9038;48.208;16.308;2022-12-18T03:31:03;21.73;;;12.03;;
17826;SDS011;9038;48.208;16.308;2022-12-18T03:33:07;23.73;;;13.30;;
17826;SDS011;9038;48.208;16.308;2022-12-18T03:35:14;23.20;;;12.23;;
17826;SDS011;9038;48.208;16.308;2022-12-18T03:37:20;25.77;;;12.53;;
17826;SDS011;9038;48.208;16.308;2022-12-18T03:39:22;27.37;;;13.10;;
17826;SDS011;9038;48.208;16.308;2022-12-18T03:41:26;24.90;;;12.67;;
17826;SDS011;9038;48.208;16.308;2022-12-18T03:43:35;23.07;;;12.00;;
17826;SDS011;9038;48.208;16.308;2022-12-18T03:45:46;21.17;;;11.60;;
17826;SDS011;9038;48.208;16.308;2022-12-18T03:47:56;22.93;;;12.00;;
17826;SDS011;9038;48.208;16.308;2022-12-18T03:50:03;23.43;;;11.97;;
17826;SDS011;9038;48.208;16.308;2022-12-18T03:52:13;23.13;;;12.33;;
17826;SDS011;9038;48.208;16.308;2022-12-18T03:54:21;25.17;;;12.93;;
17826;SDS011;9038;48.208;16.308;2022-12-18T03:56:25;24.00;;;11.63;;
17826;SDS011;9038;48.208;16.308;2022-12-18T03:58:32;23.33;;;11.77;;
17826;SDS011;9038;48.208;16.308;2022-12-18T04:00:36;23.57;;;12.40;;
17826;SDS011;9038;48.208;16.308;2022-12-18T04:02:40;20.57;;;12.03;;
17826;SDS011;9038;48.208;16.308;2022-12-18T04:04:48;20.53;;;11.60;;
17826;SDS011;9038;48.208;16.308;2022-12-18T04:06:54;19.23;;;11.17;;
17826;SDS011;9038;48.208;16.308;2022-12-18T04:08:57;21.37;;;12.57;;
17826;SDS011;9038;48.208;16.308;2022-12-18T04:11:00;19.37;;;12.23;;
17826;SDS011;9038;48.208;16.308;2022-12-18T04:13:02;24.03;;;12.00;;
17826;SDS011;9038;48.208;16.308;2022-12-18T04:15:05;19.27;;;11.67;;
17826;SDS011;9038;48.208;16.308;2022-12-18T04:17:08;22.93;;;12.13;;
17826;SDS011;9038;48.208;16.308;2022-12-18T04:19:10;21.93;;;12.77;;
17826;SDS011;9038;48.208;16.308;2022-12-18T04:21:13;22.33;;;11.77;;
17826;SDS011;9038;48.208;16.308;2022-12-18T04:23:15;20.37;;;12.10;;
17826;SDS011;9038;48.208;16.308;2022-12-18T04:25:17;26.63;;;13.60;;
17826;SDS011;9038;48.208;16.308;2022-12-18T04:27:19;19.67;;;12.47;;
17826;SDS011;9038;48.208;16.308;2022-12-18T04:29:21;19.30;;;11.17;;
17826;SDS011;9038;48.208;16.308;2022-12-18T04:31:23;17.33;;;11.07;;
17826;SDS011;9038;48.208;16.308;2022-12-18T04:33:25;21.87;;;12.27;;
17826;SDS011;9038;48.208;16.308;2022-12-18T04:35:27;22.40;;;12.23;;
17826;SDS011;9038;48.208;16.308;2022-12-18T04:37:30;21.87;;;12.63;;
17826;SDS011;9038;48.208;16.308;2022-12-18T04:39:32;22.57;;;12.97;;
17826;SDS011;9038;48.208;16.308;2022-12-18T04:41:35;22.87;;;12.20;;
17826;SDS011;9038;48.208;16.308;2022-12-18T04:43:37;21.67;;;12.43;;
17826;SDS011;9038;48.208;16.308;2022-12-18T04:45:39;20.07;;;12.00;;
17826;SDS011;9038;48.208;16.308;2022-12-18T04:47:41;22.00;;;12.10;;
17826;SDS011;9038;48.208;16.308;2022-12-18T04:49:43;21.27;;;12.40;;
17826;SDS011;9038;48.208;16.308;2022-12-18T04:51:45;23.70;;;12.10;;
17826;SDS011;9038;48.208;16.308;2022-12-18T04:53:48;22.47;;;11.60;;
17826;SDS011;9038;48.208;16.308;2022-12-18T04:55:50;23.67;;;12.33;;
17826;SDS011;9038;48.208;16.308;2022-12-18T04:58:02;20.87;;;11.27;;
17826;SDS011;9038;48.208;16.308;2022-12-18T05:00:05;22.37;;;12.83;;
17826;SDS011;9038;48.208;16.308;2022-12-18T05:02:07;26.23;;;13.07;;
17826;SDS011;9038;48.208;16.308;2022-12-18T05:04:09;20.53;;;12.23;;
17826;SDS011;9038;48.208;16.308;2022-12-18T05:06:11;21.70;;;11.90;;
17826;SDS011;9038;48.208;16.308;2022-12-18T05:08:13;24.17;;;12.20;;
17826;SDS011;9038;48.208;16.308;2022-12-18T05:10:16;21.47;;;12.57;;
17826;SDS011;9038;48.208;16.308;2022-12-18T05:12:18;21.77;;;11.83;;
17826;SDS011;9038;48.208;16.308;2022-12-18T05:14:20;23.33;;;12.23;;
17826;SDS011;9038;48.208;16.308;2022-12-18T05:16:23;19.67;;;11.20;;
17826;SDS011;9038;48.208;16.308;2022-12-18T05:18:25;20.73;;;11.23;;
17826;SDS011;9038;48.208;16.308;2022-12-18T05:20:27;20.23;;;12.20;;
17826;SDS011;9038;48.208;16.308;2022-12-18T05:22:29;20.67;;;11.60;;
17826;SDS011;9038;48.208;16.308;2022-12-18T05:24:31;20.97;;;11.60;;
17826;SDS011;9038;48.208;16.308;2022-12-18T05:26:34;20.97;;;12.50;;
17826;SDS011;9038;48.208;16.308;2022-12-18T05:28:36;22.10;;;12.17;;
17826;SDS011;9038;48.208;16.308;2022-12-18T05:30:38;22.67;;;12.37;;
17826;SDS011;9038;48.208;16.308;2022-12-18T05:32:40;22.20;;;12.60;;
17826;SDS011;9038;48.208;16.308;2022-12-18T05:34:42;24.20;;;12.83;;
17826;SDS011;9038;48.208;16.308;2022-12-18T05:36:44;22.93;;;12.40;;
17826;SDS011;9038;48.208;16.308;2022-12-18T05:38:46;23.33;;;12.47;;
17826;SDS011;9038;48.208;16.308;2022-12-18T05:40:48;21.67;;;12.10;;
17826;SDS011;9038;48.208;16.308;2022-12-18T05:42:52;21.53;;;12.37;;
17826;SDS011;9038;48.208;16.308;2022-12-18T05:44:54;25.33;;;12.37;;
17826;SDS011;9038;48.208;16.308;2022-12-18T05:46:55;22.00;;;12.47;;
17826;SDS011;9038;48.208;16.308;2022-12-18T05:48:58;18.37;;;11.20;;
17826;SDS011;9038;48.208;16.308;2022-12-18T05:51:04;24.73;;;13.13;;
17826;SDS011;9038;48.208;16.308;2022-12-18T05:53:07;20.97;;;12.53;;
17826;SDS011;9038;48.208;16.308;2022-12-18T05:55:09;26.20;;;13.00;;
17826;SDS011;9038;48.208;16.308;2022-12-18T05:57:11;22.23;;;12.63;;
17826;SDS011;9038;48.208;16.308;2022-12-18T05:59:14;23.50;;;12.90;;
17826;SDS011;9038;48.208;16.308;2022-12-18T06:01:17;24.90;;;13.43;;
17826;SDS011;9038;48.208;16.308;2022-12-18T06:03:21;22.83;;;12.17;;
17826;SDS011;9038;48.208;16.308;2022-12-18T06:05:23;22.40;;;12.73;;
17826;SDS011;9038;48.208;16.308;2022-12-18T06:07:25;23.33;;;12.97;;
17826;SDS011;9038;48.208;16.308;2022-12-18T06:09:26;20.10;;;12.00;;
17826;SDS011;9038;48.208;16.308;2022-12-18T06:11:29;23.93;;;12.50;;
17826;SDS011;9038;48.208;16.308;2022-12-18T06:13:31;23.77;;;12.40;;
17826;SDS011;9038;48.208;16.308;2022-12-18T06:15:36;22.90;;;12.57;;
17826;SDS011;9038;48.208;16.308;2022-12-18T06:17:39;26.30;;;13.60;;
17826;SDS011;9038;48.208;16.308;2022-12-18T06:19:40;25.17;;;12.57;;
17826;SDS011;9038;48.208;16.308;2022-12-18T06:21:42;28.00;;;13.30;;
17826;SDS011;9038;48.208;16.308;2022-12-18T06:23:44;26.23;;;14.03;;
17826;SDS011;9038;48.208;16.308;2022-12-18T06:25:46;24.50;;;13.50;;
17826;SDS011;9038;48.208;16.308;2022-12-18T06:27:48;27.50;;;14.47;;
17826;SDS011;9038;48.208;16.308;2022-12-18T06:29:50;25.13;;;13.70;;
17826;SDS011;9038;48.208;16.308;2022-12-18T06:31:53;23.47;;;14.10;;
17826;SDS011;9038;48.208;16.308;2022-12-18T06:33:55;30.23;;;15.17;;
17826;SDS011;9038;48.208;16.308;2022-12-18T06:35:59;28.97;;;14.13;;
17826;SDS011;9038;48.208;16.308;2022-12-18T06:38:02;26.23;;;14.50;;
17826;SDS011;9038;48.208;16.308;2022-12-18T06:40:05;31.37;;;15.57;;
17826;SDS011;9038;48.208;16.308;2022-12-18T06:42:08;26.93;;;14.70;;
17826;SDS011;9038;48.208;16.308;2022-12-18T06:44:10;27.30;;;15.87;;
17826;SDS011;9038;48.208;16.308;2022-12-18T06:46:12;32.80;;;15.27;;
17826;SDS011;9038;48.208;16.308;2022-12-18T06:48:15;33.77;;;15.73;;
17826;SDS011;9038;48.208;16.308;2022-12-18T06:50:17;30.27;;;15.20;;
17826;SDS011;9038;48.208;16.308;2022-12-18T06:52:19;24.63;;;14.47;;
17826;SDS011;9038;48.208;16.308;2022-12-18T06:54:21;31.00;;;15.20;;
17826;SDS011;9038;48.208;16.308;2022-12-18T06:56:23;30.90;;;15.93;;
17826;SDS011;9038;48.208;16.308;2022-12-18T06:58:25;30.60;;;16.10;;
17826;SDS011;9038;48.208;16.308;2022-12-18T07:00:27;30.87;;;15.80;;
17826;SDS011;9038;48.208;16.308;2022-12-18T07:02:29;32.70;;;16.30;;
17826;SDS011;9038;48.208;16.308;2022-12-18T07:04:33;29.07;;;15.80;;
17826;SDS011;9038;48.208;16.308;2022-12-18T07:06:35;32.30;;;15.33;;
17826;SDS011;9038;48.208;16.308;2022-12-18T07:08:36;31.03;;;16.20;;
17826;SDS011;9038;48.208;16.308;2022-12-18T07:10:40;36.30;;;16.93;;
17826;SDS011;9038;48.208;16.308;2022-12-18T07:12:43;30.77;;;15.73;;
17826;SDS011;9038;48.208;16.308;2022-12-18T07:14:45;27.40;;;14.70;;
17826;SDS011;9038;48.208;16.308;2022-12-18T07:16:47;32.33;;;16.40;;
17826;SDS011;9038;48.208;16.308;2022-12-18T07:18:49;29.03;;;15.93;;
17826;SDS011;9038;48.208;16.308;2022-12-18T07:20:52;30.23;;;16.43;;
17826;SDS011;9038;48.208;16.308;2022-12-18T07:22:54;32.60;;;17.33;;
17826;SDS011;9038;48.208;16.308;2022-12-18T07:24:56;30.87;;;16.90;;
17826;SDS011;9038;48.208;16.308;2022-12-18T07:26:58;31.80;;;17.33;;
17826;SDS011;9038;48.208;16.308;2022-12-18T07:29:00;32.60;;;17.63;;
17826;SDS011;9038;48.208;16.308;2022-12-18T07:31:02;28.73;;;16.43;;
17826;SDS011;9038;48.208;16.308;2022-12-18T07:33:04;31.80;;;16.83;;
17826;SDS011;9038;48.208;16.308;2022-12-18T07:35:06;27.80;;;16.00;;
17826;SDS011;9038;48.208;16.308;2022-12-18T07:37:10;31.37;;;16.03;;
17826;SDS011;9038;48.208;16.308;2022-12-18T07:39:12;28.17;;;16.10;;
17826;SDS011;9038;48.208;16.308;2022-12-18T07:41:14;32.27;;;16.80;;
17826;SDS011;9038;48.208;16.308;2022-12-18T07:43:16;27.77;;;15.67;;
17826;SDS011;9038;48.208;16.308;2022-12-18T07:45:18;30.83;;;15.77;;
17826;SDS011;9038;48.208;16.308;2022-12-18T07:47:20;27.57;;;15.30;;
17826;SDS011;9038;48.208;16.308;2022-12-18T07:49:22;29.83;;;16.13;;
17826;SDS011;9038;48.208;16.308;2022-12-18T07:51:24;28.53;;;16.07;;
17826;SDS011;9038;48.208;16.308;2022-12-18T07:53:27;29.53;;;15.63;;
17826;SDS011;9038;48.208;16.308;2022-12-18T07:55:29;28.77;;;16.33;;
17826;SDS011;9038;48.208;16.308;2022-12-18T07:57:31;26.20;;;15.93;;
17826;SDS011;9038;48.208;16.308;2022-12-18T07:59:34;30.70;;;17.20;;
17826;SDS011;9038;48.208;16.308;2022-12-18T08:01:36;30.67;;;17.37;;
17826;SDS011;9038;48.208;16.308;2022-12-18T08:03:38;30.30;;;16.90;;
17826;SDS011;9038;48.208;16.308;2022-12-18T08:05:41;27.73;;;16.43;;
17826;SDS011;9038;48.208;16.308;2022-12-18T08:07:43;29.27;;;16.27;;
17826;SDS011;9038;48.208;16.308;2022-12-18T08:09:46;32.50;;;16.47;;
17826;SDS011;9038;48.208;16.308;2022-12-18T08:11:48;34.20;;;17.37;;
17826;SDS011;9038;48.208;16.308;2022-12-18T08:13:50;32.53;;;17.13;;
17826;SDS011;9038;48.208;16.308;2022-12-18T08:15:56;36.00;;;18.03;;
17826;SDS011;9038;48.208;16.308;2022-12-18T08:17:59;30.20;;;17.70;;
17826;SDS011;9038;48.208;16.308;2022-12-18T08:20:00;31.37;;;17.23;;
17826;SDS011;9038;48.208;16.308;2022-12-18T08:22:02;28.70;;;16.40;;
17826;SDS011;9038;48.208;16.308;2022-12-18T08:24:05;31.00;;;17.37;;
17826;SDS011;9038;48.208;16.308;2022-12-18T08:26:08;30.97;;;17.17;;
17826;SDS011;9038;48.208;16.308;2022-12-18T08:28:11;29.50;;;17.13;;
17826;SDS011;9038;48.208;16.308;2022-12-18T08:30:13;32.57;;;18.17;;
17826;SDS011;9038;48.208;16.308;2022-12-18T08:32:15;34.27;;;16.97;;
17826;SDS011;9038;48.208;16.308;2022-12-18T08:34:17;30.60;;;17.87;;
17826;SDS011;9038;48.208;16.308;2022-12-18T08:36:19;29.03;;;17.27;;
17826;SDS011;9038;48.208;16.308;2022-12-18T08:38:21;29.67;;;17.17;;
17826;SDS011;9038;48.208;16.308;2022-12-18T08:40:23;34.40;;;19.03;;
17826;SDS011;9038;48.208;16.308;2022-12-18T08:42:27;34.30;;;19.20;;
17826;SDS011;9038;48.208;16.308;2022-12-18T08:44:46;32.80;;;18.40;;
17826;SDS011;9038;48.208;16.308;2022-12-18T08:46:48;32.37;;;18.30;;
17826;SDS011;9038;48.208;16.308;2022-12-18T08:48:50;33.03;;;18.50;;
17826;SDS011;9038;48.208;16.308;2022-12-18T08:50:55;30.33;;;18.33;;
17826;SDS011;9038;48.208;16.308;2022-12-18T08:52:58;34.83;;;17.60;;
17826;SDS011;9038;48.208;16.308;2022-12-18T08:55:00;31.17;;;18.37;;
17826;SDS011;9038;48.208;16.308;2022-12-18T08:57:02;35.70;;;19.23;;
17826;SDS011;9038;48.208;16.308;2022-12-18T08:59:05;34.80;;;19.03;;
17826;SDS011;9038;48.208;16.308;2022-12-18T09:01:08;33.67;;;19.70;;
17826;SDS011;9038;48.208;16.308;2022-12-18T09:03:12;35.43;;;20.63;;
17826;SDS011;9038;48.208;16.308;2022-12-18T09:05:14;32.80;;;19.70;;
17826;SDS011;9038;48.208;16.308;2022-12-18T09:07:16;37.50;;;20.33;;
17826;SDS011;9038;48.208;16.308;2022-12-18T09:09:18;36.43;;;21.03;;
17826;SDS011;9038;48.208;16.308;2022-12-18T09:11:21;37.17;;;20.67;;
17826;SDS011;9038;48.208;16.308;2022-12-18T09:13:24;51.40;;;20.50;;
17826;SDS011;9038;48.208;16.308;2022-12-18T09:15:27;38.83;;;21.23;;
17826;SDS011;9038;48.208;16.308;2022-12-18T09:17:29;37.90;;;20.70;;
17826;SDS011;9038;48.208;16.308;2022-12-18T09:19:31;34.77;;;19.70;;
17826;SDS011;9038;48.208;16.308;2022-12-18T09:21:34;37.87;;;19.93;;
17826;SDS011;9038;48.208;16.308;2022-12-18T09:23:36;31.83;;;18.07;;
17826;SDS011;9038;48.208;16.308;2022-12-18T09:25:38;40.23;;;19.83;;
17826;SDS011;9038;48.208;16.308;2022-12-18T09:27:40;42.00;;;20.43;;
17826;SDS011;9038;48.208;16.308;2022-12-18T09:29:42;35.73;;;19.47;;
17826;SDS011;9038;48.208;16.308;2022-12-18T09:31:46;35.47;;;19.97;;
17826;SDS011;9038;48.208;16.308;2022-12-18T09:33:49;39.73;;;20.87;;
17826;SDS011;9038;48.208;16.308;2022-12-18T09:35:51;36.00;;;20.27;;
17826;SDS011;9038;48.208;16.308;2022-12-18T09:37:53;35.53;;;20.00;;
17826;SDS011;9038;48.208;16.308;2022-12-18T09:39:55;36.97;;;18.83;;
17826;SDS011;9038;48.208;16.308;2022-12-18T09:41:57;37.73;;;20.47;;
17826;SDS011;9038;48.208;16.308;2022-12-18T09:44:00;38.43;;;20.73;;
17826;SDS011;9038;48.208;16.308;2022-12-18T09:46:07;48.73;;;20.83;;
17826;SDS011;9038;48.208;16.308;2022-12-18T09:48:15;35.83;;;19.03;;
17826;SDS011;9038;48.208;16.308;2022-12-18T09:50:23;43.07;;;20.77;;
17826;SDS011;9038;48.208;16.308;2022-12-18T09:52:29;36.57;;;18.93;;
17826;SDS011;9038;48.208;16.308;2022-12-18T09:54:35;35.10;;;18.97;;
17826;SDS011;9038;48.208;16.308;2022-12-18T09:56:41;44.47;;;20.43;;
17826;SDS011;9038;48.208;16.308;2022-12-18T09:58:45;48.97;;;19.80;;
17826;SDS011;9038;48.208;16.308;2022-12-18T10:00:51;49.93;;;21.83;;
17826;SDS011;9038;48.208;16.308;2022-12-18T10:02:54;42.90;;;21.37;;
17826;SDS011;9038;48.208;16.308;2022-12-18T10:05:04;50.23;;;24.07;;
17826;SDS011;9038;48.208;16.308;2022-12-18T10:07:12;44.13;;;21.83;;
17826;SDS011;9038;48.208;16.308;2022-12-18T10:09:23;38.77;;;20.67;;
17826;SDS011;9038;48.208;16.308;2022-12-18T10:11:33;51.30;;;21.47;;
17826;SDS011;9038;48.208;16.308;2022-12-18T10:13:43;43.83;;;19.57;;
17826;SDS011;9038;48.208;16.308;2022-12-18T10:15:51;33.43;;;18.13;;
17826;SDS011;9038;48.208;16.308;2022-12-18T10:18:06;35.13;;;18.93;;
17826;SDS011;9038;48.208;16.308;2022-12-18T10:20:19;39.53;;;20.47;;
17826;SDS011;9038;48.208;16.308;2022-12-18T10:22:28;46.63;;;20.77;;
17826;SDS011;9038;48.208;16.308;2022-12-18T10:24:37;41.23;;;19.47;;
17826;SDS011;9038;48.208;16.308;2022-12-18T10:26:45;34.80;;;18.13;;
17826;SDS011;9038;48.208;16.308;2022-12-18T10:28:48;42.53;;;19.93;;
17826;SDS011;9038;48.208;16.308;2022-12-18T10:30:50;40.90;;;19.00;;
17826;SDS011;9038;48.208;16.308;2022-12-18T10:32:52;31.50;;;17.93;;
17826;SDS011;9038;48.208;16.308;2022-12-18T10:34:56;34.47;;;17.93;;
17826;SDS011;9038;48.208;16.308;2022-12-18T10:37:01;35.97;;;18.00;;
17826;SDS011;9038;48.208;16.308;2022-12-18T10:39:14;47.50;;;19.57;;
17826;SDS011;9038;48.208;16.308;2022-12-18T10:41:26;35.67;;;17.23;;
17826;SDS011;9038;48.208;16.308;2022-12-18T10:43:28;37.43;;;18.43;;
17826;SDS011;9038;48.208;16.308;2022-12-18T10:45:32;42.17;;;19.70;;
17826;SDS011;9038;48.208;16.308;2022-12-18T10:47:34;34.43;;;18.87;;
17826;SDS011;9038;48.208;16.308;2022-12-18T10:49:36;35.00;;;18.37;;
17826;SDS011;9038;48.208;16.308;2022-12-18T10:51:43;37.77;;;18.90;;
17826;SDS011;9038;48.208;16.308;2022-12-18T10:53:50;51.70;;;21.17;;
17826;SDS011;9038;48.208;16.308;2022-12-18T10:55:55;32.50;;;17.00;;
17826;SDS011;9038;48.208;16.308;2022-12-18T10:58:13;40.03;;;17.23;;
17826;SDS011;9038;48.208;16.308;2022-12-18T11:00:23;43.07;;;19.10;;
17826;SDS011;9038;48.208;16.308;2022-12-18T11:02:28;40.20;;;19.87;;
17826;SDS011;9038;48.208;16.308;2022-12-18T11:04:36;32.67;;;17.50;;
17826;SDS011;9038;48.208;16.308;2022-12-18T11:06:55;31.57;;;17.37;;
17826;SDS011;9038;48.208;16.308;2022-12-18T11:09:01;41.07;;;19.00;;
17826;SDS011;9038;48.208;16.308;2022-12-18T11:11:07;36.47;;;19.20;;
17826;SDS011;9038;48.208;16.308;2022-12-18T11:13:17;32.93;;;18.00;;
17826;SDS011;9038;48.208;16.308;2022-12-18T11:15:23;40.70;;;19.70;;
17826;SDS011;9038;48.208;16.308;2022-12-18T11:17:28;45.13;;;20.30;;
17826;SDS011;9038;48.208;16.308;2022-12-18T11:19:32;39.37;;;20.37;;
17826;SDS011;9038;48.208;16.308;2022-12-18T11:21:38;44.50;;;19.00;;
17826;SDS011;9038;48.208;16.308;2022-12-18T11:23:44;46.63;;;20.23;;
17826;SDS011;9038;48.208;16.308;2022-12-18T11:25:52;39.07;;;19.73;;
17826;SDS011;9038;48.208;16.308;2022-12-18T11:27:58;33.00;;;18.53;;
17826;SDS011;9038;48.208;16.308;2022-12-18T11:30:08;38.70;;;20.07;;
17826;SDS011;9038;48.208;16.308;2022-12-18T11:34:32;33.23;;;18.40;;
17826;SDS011;9038;48.208;16.308;2022-12-18T11:36:36;33.27;;;18.77;;
17826;SDS011;9038;48.208;16.308;2022-12-18T11:38:40;34.70;;;18.00;;
17826;SDS011;9038;48.208;16.308;2022-12-18T11:40:45;36.57;;;19.13;;
17826;SDS011;9038;48.208;16.308;2022-12-18T11:42:56;37.93;;;19.90;;
17826;SDS011;9038;48.208;16.308;2022-12-18T11:45:21;36.67;;;18.87;;
17826;SDS011;9038;48.208;16.308;2022-12-18T11:47:28;38.77;;;19.87;;
17826;SDS011;9038;48.208;16.308;2022-12-18T11:49:38;39.03;;;18.73;;
17826;SDS011;9038;48.208;16.308;2022-12-18T11:51:47;33.93;;;19.17;;
17826;SDS011;9038;48.208;16.308;2022-12-18T11:53:53;36.27;;;20.03;;
17826;SDS011;9038;48.208;16.308;2022-12-18T11:56:01;48.97;;;21.63;;
17826;SDS011;9038;48.208;16.308;2022-12-18T11:58:11;47.90;;;21.07;;
17826;SDS011;9038;48.208;16.308;2022-12-18T12:00:18;40.40;;;20.63;;
17826;SDS011;9038;48.208;16.308;2022-12-18T12:02:25;35.90;;;19.03;;
17826;SDS011;9038;48.208;16.308;2022-12-18T12:04:42;49.20;;;21.07;;
17826;SDS011;9038;48.208;16.308;2022-12-18T12:06:57;46.67;;;20.77;;
17826;SDS011;9038;48.208;16.308;2022-12-18T12:09:08;37.90;;;20.00;;
17826;SDS011;9038;48.208;16.308;2022-12-18T12:11:19;44.83;;;20.73;;
17826;SDS011;9038;48.208;16.308;2022-12-18T12:13:36;36.37;;;20.20;;
17826;SDS011;9038;48.208;16.308;2022-12-18T12:15:52;40.27;;;20.00;;